Lloydminister, Canada
Current Conditions -  °F | °C
As of 11:00 AM on Friday 31 Oct 2014 (Local Time) from CYLL Reporting Station
Broken Clouds Broken Clouds  
Wind Chill: 32°   Ceiling: 25000
Heat Index: 41°   Visibility: 15mi
Dew Point: 34°   Wind: 17mph
Humidity: 76%   Direction: 150°SSE
Pressure: 29.7"   Gusts: 24mph
Location:  53.32°N, 110.07°W
Report Text: CYLL 311700Z 15015G21KT 15SM BKN250 05/01 A2970 RMK CI6 SLP084
Loading
Personal Weather Stations






























Interactive Weather Map
Tropical Storm Tracking
New forecast layout! Learn more

10-Day Weather Forecast

Advertisements
Track Severe Weather on mobile